Yates, Illinois
Current Conditions -  °F | °C
As of 11:35 PM on Friday 31 Oct 2014 (Local Time) from KPNT Reporting Station
Clear Clear  
Wind Chill: -4°   Ceiling: Unl
Heat Index:   Visibility: 10mi
Dew Point: -6°   Wind: 16mph
Humidity: 57%   Direction: 350°N
Pressure: 30.36"   Gusts: 21mph
Location:  40.7409°N, 88.7189°W
Report Text: KPNT 010435Z AUTO 35014G18KT 10SM CLR 02/M06 A3036 RMK AO2 T00171060
Loading
Personal Weather Stations






























Interactive Weather Map
Tropical Storm Tracking
New forecast layout! Learn more

10-Day Weather Forecast

Advertisements
Track Severe Weather on mobile